sensor_id;sensor_type;location;lat;lon;timestamp;pressure;altitude;pressure_sealevel;temperature;humidity
44926;BME280;30662;51.210;7.656;2023-06-14T00:01:58;153468.44;;;18.70;44.08
44926;BME280;30662;51.210;7.656;2023-06-14T00:04:24;153483.72;;;18.77;43.84
44926;BME280;30662;51.210;7.656;2023-06-14T00:06:51;153455.66;;;18.65;44.27
44926;BME280;30662;51.210;7.656;2023-06-14T00:09:17;153420.00;;;18.51;44.18
44926;BME280;30662;51.210;7.656;2023-06-14T00:11:43;153404.72;;;18.45;44.27
44926;BME280;30662;51.210;7.656;2023-06-14T00:14:09;153426.34;;;18.54;44.03
44926;BME280;30662;51.210;7.656;2023-06-14T00:16:36;153434.03;;;18.57;43.38
44926;BME280;30662;51.210;7.656;2023-06-14T00:19:02;153402.19;;;18.44;43.81
44926;BME280;30662;51.210;7.656;2023-06-14T00:21:29;153446.78;;;18.62;43.63
44926;BME280;30662;51.210;7.656;2023-06-14T00:23:58;153467.19;;;18.70;43.32
44926;BME280;30662;51.210;7.656;2023-06-14T00:26:25;153450.56;;;18.63;43.39
44926;BME280;30662;51.210;7.656;2023-06-14T00:28:52;153400.91;;;18.43;43.42
44926;BME280;30662;51.210;7.656;2023-06-14T00:31:20;153385.63;;;18.37;43.79
44926;BME280;30662;51.210;7.656;2023-06-14T00:33:46;153404.72;;;18.45;43.54
44926;BME280;30662;51.210;7.656;2023-06-14T00:36:12;153393.31;;;18.40;44.15
44926;BME280;30662;51.210;7.656;2023-06-14T00:38:38;153355.13;;;18.25;44.40
44926;BME280;30662;51.210;7.656;2023-06-14T00:41:03;153288.94;;;17.99;45.02
44926;BME280;30662;51.210;7.656;2023-06-14T00:43:29;153295.28;;;18.01;44.90
44926;BME280;30662;51.210;7.656;2023-06-14T00:45:55;153281.28;;;17.96;45.08
44926;BME280;30662;51.210;7.656;2023-06-14T00:48:22;153253.31;;;17.84;45.06
44926;BME280;30662;51.210;7.656;2023-06-14T00:50:49;153248.25;;;17.82;44.99
44926;BME280;30662;51.210;7.656;2023-06-14T00:53:16;153198.56;;;17.62;45.59
44926;BME280;30662;51.210;7.656;2023-06-14T00:55:52;153215.09;;;17.69;45.70
44926;BME280;30662;51.210;7.656;2023-06-14T00:58:18;153217.63;;;17.70;45.29
44926;BME280;30662;51.210;7.656;2023-06-14T01:00:44;153201.09;;;17.63;44.98
44926;BME280;30662;51.210;7.656;2023-06-14T01:03:10;153225.31;;;17.73;44.55
44926;BME280;30662;51.210;7.656;2023-06-14T01:05:38;153241.84;;;17.80;44.49
44926;BME280;30662;51.210;7.656;2023-06-14T01:13:35;153211.28;;;17.68;44.83
44926;BME280;30662;51.210;7.656;2023-06-14T01:16:02;153128.59;;;17.34;45.73
44926;BME280;30662;51.210;7.656;2023-06-14T01:18:29;153091.72;;;17.20;45.95
44926;BME280;30662;51.210;7.656;2023-06-14T01:20:55;153096.78;;;17.22;45.75
44926;BME280;30662;51.210;7.656;2023-06-14T01:23:22;153095.53;;;17.21;46.18
44926;BME280;30662;51.210;7.656;2023-06-14T01:25:49;153094.25;;;17.21;45.82
44926;BME280;30662;51.210;7.656;2023-06-14T01:28:19;153047.19;;;17.02;46.50
44926;BME280;30662;51.210;7.656;2023-06-14T01:30:48;153092.97;;;17.20;45.80
44926;BME280;30662;51.210;7.656;2023-06-14T01:33:18;153043.38;;;17.00;46.05
44926;BME280;30662;51.210;7.656;2023-06-14T01:35:46;153092.97;;;17.20;45.67
44926;BME280;30662;51.210;7.656;2023-06-14T01:38:13;153103.19;;;17.24;45.35
44926;BME280;30662;51.210;7.656;2023-06-14T01:40:42;153067.56;;;17.10;45.74
44926;BME280;30662;51.210;7.656;2023-06-14T01:43:10;153077.72;;;17.14;46.01
44926;BME280;30662;51.210;7.656;2023-06-14T01:45:37;153080.25;;;17.15;45.84
44926;BME280;30662;51.210;7.656;2023-06-14T01:48:04;153047.19;;;17.02;46.08
44926;BME280;30662;51.210;7.656;2023-06-14T01:50:31;153080.25;;;17.15;46.13
44926;BME280;30662;51.210;7.656;2023-06-14T01:52:57;153071.38;;;17.12;45.67
44926;BME280;30662;51.210;7.656;2023-06-14T01:55:23;153048.50;;;17.02;46.15
44926;BME280;30662;51.210;7.656;2023-06-14T01:57:52;153053.56;;;17.04;46.30
44926;BME280;30662;51.210;7.656;2023-06-14T02:00:19;153078.97;;;17.15;46.14
44926;BME280;30662;51.210;7.656;2023-06-14T02:02:45;153053.56;;;17.04;46.52
44926;BME280;30662;51.210;7.656;2023-06-14T02:05:11;153063.72;;;17.08;46.83
44926;BME280;30662;51.210;7.656;2023-06-14T02:07:37;153017.97;;;16.90;47.65
44926;BME280;30662;51.210;7.656;2023-06-14T02:10:04;152961.97;;;16.68;48.26
44926;BME280;30662;51.210;7.656;2023-06-14T02:12:30;152937.78;;;16.58;48.60
44926;BME280;30662;51.210;7.656;2023-06-14T02:14:56;152961.97;;;16.68;48.52
44926;BME280;30662;51.210;7.656;2023-06-14T02:17:23;152932.72;;;16.56;49.17
44926;BME280;30662;51.210;7.656;2023-06-14T02:19:50;152963.25;;;16.68;48.95
44926;BME280;30662;51.210;7.656;2023-06-14T02:22:16;152927.66;;;16.54;49.00
44926;BME280;30662;51.210;7.656;2023-06-14T02:24:43;152856.47;;;16.25;49.51
44926;BME280;30662;51.210;7.656;2023-06-14T02:27:09;152902.19;;;16.44;49.09
44926;BME280;30662;51.210;7.656;2023-06-14T02:29:37;152916.19;;;16.49;49.02
44926;BME280;30662;51.210;7.656;2023-06-14T02:32:04;152881.88;;;16.36;49.39
44926;BME280;30662;51.210;7.656;2023-06-14T02:34:33;152902.19;;;16.44;49.06
44926;BME280;30662;51.210;7.656;2023-06-14T02:37:00;152871.72;;;16.32;49.22
44926;BME280;30662;51.210;7.656;2023-06-14T02:39:29;152820.88;;;16.11;49.69
44926;BME280;30662;51.210;7.656;2023-06-14T02:41:55;152869.19;;;16.31;49.01
44926;BME280;30662;51.210;7.656;2023-06-14T02:44:25;152815.81;;;16.09;49.64
44926;BME280;30662;51.210;7.656;2023-06-14T02:46:53;152859.00;;;16.26;48.93
44926;BME280;30662;51.210;7.656;2023-06-14T02:49:19;152846.28;;;16.21;49.88
44926;BME280;30662;51.210;7.656;2023-06-14T02:51:45;152823.41;;;16.12;49.55
44926;BME280;30662;51.210;7.656;2023-06-14T02:54:10;152838.66;;;16.18;49.64
44926;BME280;30662;51.210;7.656;2023-06-14T02:56:36;152851.41;;;16.23;49.46
44926;BME280;30662;51.210;7.656;2023-06-14T02:59:02;152832.34;;;16.16;49.57
44926;BME280;30662;51.210;7.656;2023-06-14T03:01:28;152825.94;;;16.13;49.78
44926;BME280;30662;51.210;7.656;2023-06-14T03:04:01;152859.00;;;16.26;49.65
44926;BME280;30662;51.210;7.656;2023-06-14T03:06:28;152832.34;;;16.16;50.00
44926;BME280;30662;51.210;7.656;2023-06-14T03:08:56;152829.75;;;16.15;50.07
44926;BME280;30662;51.210;7.656;2023-06-14T03:11:26;152820.88;;;16.11;50.19
44926;BME280;30662;51.210;7.656;2023-06-14T03:13:52;152862.81;;;16.28;49.52
44926;BME280;30662;51.210;7.656;2023-06-14T03:16:19;152892.06;;;16.40;49.70
44926;BME280;30662;51.210;7.656;2023-06-14T03:18:45;152889.53;;;16.39;49.60
44926;BME280;30662;51.210;7.656;2023-06-14T03:21:11;152859.00;;;16.26;50.31
44926;BME280;30662;51.210;7.656;2023-06-14T03:23:37;152886.97;;;16.38;50.27
44926;BME280;30662;51.210;7.656;2023-06-14T03:26:03;152880.59;;;16.35;50.28
44926;BME280;30662;51.210;7.656;2023-06-14T03:28:29;152880.59;;;16.35;50.17
44926;BME280;30662;51.210;7.656;2023-06-14T03:30:54;152867.91;;;16.30;50.68
44926;BME280;30662;51.210;7.656;2023-06-14T03:33:20;152857.72;;;16.26;50.98
44926;BME280;30662;51.210;7.656;2023-06-14T03:35:46;152866.66;;;16.30;51.24
44926;BME280;30662;51.210;7.656;2023-06-14T03:38:12;152867.91;;;16.30;50.97
44926;BME280;30662;51.210;7.656;2023-06-14T03:40:38;152855.19;;;16.25;51.67
44926;BME280;30662;51.210;7.656;2023-06-14T03:43:04;152828.47;;;16.14;51.92
44926;BME280;30662;51.210;7.656;2023-06-14T03:45:30;152792.91;;;16.00;52.59
44926;BME280;30662;51.210;7.656;2023-06-14T03:47:56;152855.19;;;16.25;51.90
44926;BME280;30662;51.210;7.656;2023-06-14T03:50:22;152810.69;;;16.07;52.42
44926;BME280;30662;51.210;7.656;2023-06-14T03:52:48;152810.69;;;16.07;52.53
44926;BME280;30662;51.210;7.656;2023-06-14T03:55:14;152789.09;;;15.98;52.99
44926;BME280;30662;51.210;7.656;2023-06-14T03:58:01;152771.31;;;15.91;53.46
44926;BME280;30662;51.210;7.656;2023-06-14T04:00:27;152770.03;;;15.91;53.06
44926;BME280;30662;51.210;7.656;2023-06-14T04:02:53;152790.38;;;15.99;53.17
44926;BME280;30662;51.210;7.656;2023-06-14T04:05:20;152762.44;;;15.88;54.03
44926;BME280;30662;51.210;7.656;2023-06-14T04:07:46;152756.03;;;15.85;54.21
44926;BME280;30662;51.210;7.656;2023-06-14T04:10:15;152759.91;;;15.87;54.75
44926;BME280;30662;51.210;7.656;2023-06-14T04:12:42;152798.00;;;16.02;54.13
44926;BME280;30662;51.210;7.656;2023-06-14T04:15:09;152819.63;;;16.11;53.92
44926;BME280;30662;51.210;7.656;2023-06-14T04:17:47;152820.88;;;16.11;53.80
44926;BME280;30662;51.210;7.656;2023-06-14T04:20:13;152814.53;;;16.09;54.71
44926;BME280;30662;51.210;7.656;2023-06-14T04:22:39;152869.19;;;16.31;54.04
44926;BME280;30662;51.210;7.656;2023-06-14T04:25:06;152899.66;;;16.43;53.27
44926;BME280;30662;51.210;7.656;2023-06-14T04:27:34;152850.13;;;16.23;54.30
44926;BME280;30662;51.210;7.656;2023-06-14T04:30:02;152880.59;;;16.35;54.34
44926;BME280;30662;51.210;7.656;2023-06-14T04:32:28;152921.31;;;16.51;53.63
44926;BME280;30662;51.210;7.656;2023-06-14T04:35:06;152876.78;;;16.34;55.07
44926;BME280;30662;51.210;7.656;2023-06-14T04:37:32;152851.41;;;16.23;55.14
44926;BME280;30662;51.210;7.656;2023-06-14T04:39:58;152848.84;;;16.22;54.89
44926;BME280;30662;51.210;7.656;2023-06-14T04:42:25;152825.94;;;16.13;55.92
44926;BME280;30662;51.210;7.656;2023-06-14T04:44:57;152831.06;;;16.15;55.90
44926;BME280;30662;51.210;7.656;2023-06-14T04:47:23;152827.22;;;16.14;55.15
44926;BME280;30662;51.210;7.656;2023-06-14T04:49:57;152810.69;;;16.07;55.48
44926;BME280;30662;51.210;7.656;2023-06-14T04:52:23;152843.75;;;16.20;56.26
44926;BME280;30662;51.210;7.656;2023-06-14T04:54:52;152903.50;;;16.44;55.44
44926;BME280;30662;51.210;7.656;2023-06-14T04:57:19;152893.31;;;16.40;56.19
44926;BME280;30662;51.210;7.656;2023-06-14T04:59:48;152853.94;;;16.24;56.06
44926;BME280;30662;51.210;7.656;2023-06-14T05:02:17;152892.06;;;16.40;56.45
44926;BME280;30662;51.210;7.656;2023-06-14T05:04:43;152913.66;;;16.48;56.15
44926;BME280;30662;51.210;7.656;2023-06-14T05:07:09;152909.84;;;16.47;56.37
44926;BME280;30662;51.210;7.656;2023-06-14T05:09:35;152904.78;;;16.45;56.43
44926;BME280;30662;51.210;7.656;2023-06-14T05:12:02;152928.91;;;16.54;55.95
44926;BME280;30662;51.210;7.656;2023-06-14T05:14:28;152968.38;;;16.70;55.76
44926;BME280;30662;51.210;7.656;2023-06-14T05:16:54;152970.91;;;16.71;55.00
44926;BME280;30662;51.210;7.656;2023-06-14T05:19:20;152941.63;;;16.60;55.10
44926;BME280;30662;51.210;7.656;2023-06-14T05:21:47;152954.31;;;16.65;55.54
44926;BME280;30662;51.210;7.656;2023-06-14T05:24:14;152976.03;;;16.73;56.24
44926;BME280;30662;51.210;7.656;2023-06-14T05:26:40;153026.84;;;16.94;55.86
44926;BME280;30662;51.210;7.656;2023-06-14T05:29:06;153070.09;;;17.11;55.75
44926;BME280;30662;51.210;7.656;2023-06-14T05:31:32;153081.53;;;17.16;54.30
44926;BME280;30662;51.210;7.656;2023-06-14T05:33:58;153080.25;;;17.15;54.03
44926;BME280;30662;51.210;7.656;2023-06-14T05:36:24;153039.56;;;16.99;54.55
44926;BME280;30662;51.210;7.656;2023-06-14T05:38:51;153057.38;;;17.06;54.77
44926;BME280;30662;51.210;7.656;2023-06-14T05:41:25;153080.25;;;17.15;54.55
44926;BME280;30662;51.210;7.656;2023-06-14T05:43:52;153020.50;;;16.91;55.09
44926;BME280;30662;51.210;7.656;2023-06-14T05:46:18;153025.56;;;16.93;56.05
44926;BME280;30662;51.210;7.656;2023-06-14T05:48:50;153026.84;;;16.94;56.07
44926;BME280;30662;51.210;7.656;2023-06-14T05:51:17;153054.84;;;17.05;55.74
44926;BME280;30662;51.210;7.656;2023-06-14T05:53:49;153040.84;;;16.99;55.18
44926;BME280;30662;51.210;7.656;2023-06-14T05:56:15;153024.31;;;16.93;55.99
44926;BME280;30662;51.210;7.656;2023-06-14T05:58:44;153043.38;;;17.00;55.91
44926;BME280;30662;51.210;7.656;2023-06-14T06:01:10;153077.72;;;17.14;55.28
44926;BME280;30662;51.210;7.656;2023-06-14T06:03:37;153063.72;;;17.08;56.72
44926;BME280;30662;51.210;7.656;2023-06-14T06:06:03;153059.91;;;17.07;56.46
44926;BME280;30662;51.210;7.656;2023-06-14T06:08:29;153072.63;;;17.12;56.10
44926;BME280;30662;51.210;7.656;2023-06-14T06:10:55;153076.44;;;17.14;55.51
44926;BME280;30662;51.210;7.656;2023-06-14T06:13:22;153138.78;;;17.39;54.95
44926;BME280;30662;51.210;7.656;2023-06-14T06:15:48;153161.66;;;17.48;54.89
44926;BME280;30662;51.210;7.656;2023-06-14T06:18:14;153092.97;;;17.20;55.28
44926;BME280;30662;51.210;7.656;2023-06-14T06:20:40;153090.44;;;17.19;54.33
44926;BME280;30662;51.210;7.656;2023-06-14T06:23:06;153120.97;;;17.31;54.15
44926;BME280;30662;51.210;7.656;2023-06-14T06:25:33;153131.13;;;17.35;53.64
44926;BME280;30662;51.210;7.656;2023-06-14T06:27:59;153146.41;;;17.42;53.56
44926;BME280;30662;51.210;7.656;2023-06-14T06:30:25;153188.38;;;17.58;53.13
44926;BME280;30662;51.210;7.656;2023-06-14T06:32:51;153188.38;;;17.58;53.12
44926;BME280;30662;51.210;7.656;2023-06-14T06:35:17;153194.75;;;17.61;53.24
44926;BME280;30662;51.210;7.656;2023-06-14T06:37:43;153203.63;;;17.64;53.45
44926;BME280;30662;51.210;7.656;2023-06-14T06:40:09;153217.63;;;17.70;53.70
44926;BME280;30662;51.210;7.656;2023-06-14T06:42:36;153184.56;;;17.57;52.82
44926;BME280;30662;51.210;7.656;2023-06-14T06:45:02;153213.84;;;17.69;52.18
44926;BME280;30662;51.210;7.656;2023-06-14T06:47:28;153236.78;;;17.78;53.01
44926;BME280;30662;51.210;7.656;2023-06-14T06:49:54;153278.75;;;17.95;52.65
44926;BME280;30662;51.210;7.656;2023-06-14T06:52:20;153318.19;;;18.10;52.54
44926;BME280;30662;51.210;7.656;2023-06-14T06:54:46;153280.00;;;17.95;53.01
44926;BME280;30662;51.210;7.656;2023-06-14T06:57:12;153274.94;;;17.93;52.30
44926;BME280;30662;51.210;7.656;2023-06-14T06:59:38;153283.88;;;17.97;52.81
44926;BME280;30662;51.210;7.656;2023-06-14T07:02:04;153280.00;;;17.95;53.38
44926;BME280;30662;51.210;7.656;2023-06-14T07:04:30;153248.25;;;17.82;54.48
44926;BME280;30662;51.210;7.656;2023-06-14T07:06:57;153269.84;;;17.91;53.01
44926;BME280;30662;51.210;7.656;2023-06-14T07:09:23;153281.28;;;17.96;53.61
44926;BME280;30662;51.210;7.656;2023-06-14T07:11:50;153306.75;;;18.06;53.20
44926;BME280;30662;51.210;7.656;2023-06-14T07:14:16;153318.19;;;18.10;53.84
44926;BME280;30662;51.210;7.656;2023-06-14T07:16:42;153305.50;;;18.05;53.55
44926;BME280;30662;51.210;7.656;2023-06-14T07:19:09;153320.75;;;18.11;53.33
44926;BME280;30662;51.210;7.656;2023-06-14T07:21:35;153336.00;;;18.17;53.39
44926;BME280;30662;51.210;7.656;2023-06-14T07:24:05;153292.75;;;18.00;54.24
44926;BME280;30662;51.210;7.656;2023-06-14T07:26:32;153269.84;;;17.91;54.84
44926;BME280;30662;51.210;7.656;2023-06-14T07:28:58;153319.50;;;18.11;54.02
44926;BME280;30662;51.210;7.656;2023-06-14T07:31:24;153357.66;;;18.26;53.22
44926;BME280;30662;51.210;7.656;2023-06-14T07:33:50;153375.50;;;18.33;52.68
44926;BME280;30662;51.210;7.656;2023-06-14T07:36:16;153393.31;;;18.40;52.02
44926;BME280;30662;51.210;7.656;2023-06-14T07:38:43;153366.56;;;18.30;51.33
44926;BME280;30662;51.210;7.656;2023-06-14T07:41:09;153353.81;;;18.25;51.02
44926;BME280;30662;51.210;7.656;2023-06-14T07:43:35;153408.53;;;18.46;50.48
44926;BME280;30662;51.210;7.656;2023-06-14T07:46:01;153414.94;;;18.49;50.63
44926;BME280;30662;51.210;7.656;2023-06-14T07:48:33;153380.56;;;18.35;50.96
44926;BME280;30662;51.210;7.656;2023-06-14T07:51:00;153425.09;;;18.53;50.42
44926;BME280;30662;51.210;7.656;2023-06-14T07:53:26;153400.91;;;18.43;48.70
44926;BME280;30662;51.210;7.656;2023-06-14T07:55:52;153389.44;;;18.39;48.90
44926;BME280;30662;51.210;7.656;2023-06-14T07:58:19;153385.63;;;18.37;49.51
44926;BME280;30662;51.210;7.656;2023-06-14T08:00:45;153381.84;;;18.36;49.17
44926;BME280;30662;51.210;7.656;2023-06-14T08:03:11;153375.50;;;18.33;49.35
44926;BME280;30662;51.210;7.656;2023-06-14T08:05:38;153413.66;;;18.49;49.26
44926;BME280;30662;51.210;7.656;2023-06-14T08:08:03;153379.28;;;18.35;49.03
44926;BME280;30662;51.210;7.656;2023-06-14T08:10:29;153375.50;;;18.33;50.46
44926;BME280;30662;51.210;7.656;2023-06-14T08:12:55;153376.75;;;18.34;50.08
44926;BME280;30662;51.210;7.656;2023-06-14T08:15:21;153384.38;;;18.37;50.21
44926;BME280;30662;51.210;7.656;2023-06-14T08:17:47;153408.53;;;18.46;50.06
44926;BME280;30662;51.210;7.656;2023-06-14T08:20:13;153393.31;;;18.40;51.27
44926;BME280;30662;51.210;7.656;2023-06-14T08:22:42;153426.34;;;18.54;51.26
44926;BME280;30662;51.210;7.656;2023-06-14T08:25:09;153478.59;;;18.74;50.66
44926;BME280;30662;51.210;7.656;2023-06-14T08:27:35;153440.38;;;18.59;51.49
44926;BME280;30662;51.210;7.656;2023-06-14T08:30:01;153476.06;;;18.73;50.88
44926;BME280;30662;51.210;7.656;2023-06-14T08:32:28;153521.91;;;18.92;50.61
44926;BME280;30662;51.210;7.656;2023-06-14T08:34:54;153532.06;;;18.96;50.02
44926;BME280;30662;51.210;7.656;2023-06-14T08:37:31;153515.53;;;18.89;50.32
44926;BME280;30662;51.210;7.656;2023-06-14T08:39:58;153510.44;;;18.87;49.68
44926;BME280;30662;51.210;7.656;2023-06-14T08:42:24;153492.63;;;18.80;48.94
44926;BME280;30662;51.210;7.656;2023-06-14T08:44:58;153546.09;;;19.01;49.14
44926;BME280;30662;51.210;7.656;2023-06-14T08:47:25;153543.56;;;19.00;48.02
44926;BME280;30662;51.210;7.656;2023-06-14T08:49:53;153541.00;;;18.99;48.38
44926;BME280;30662;51.210;7.656;2023-06-14T08:52:23;153529.53;;;18.95;47.90
44926;BME280;30662;51.210;7.656;2023-06-14T08:54:50;153543.56;;;19.00;47.53
44926;BME280;30662;51.210;7.656;2023-06-14T08:57:17;153546.09;;;19.01;46.69
44926;BME280;30662;51.210;7.656;2023-06-14T08:59:46;153553.72;;;19.05;46.29
44926;BME280;30662;51.210;7.656;2023-06-14T09:02:15;153594.50;;;19.21;45.79
44926;BME280;30662;51.210;7.656;2023-06-14T09:04:43;153600.84;;;19.23;43.58
44926;BME280;30662;51.210;7.656;2023-06-14T09:07:11;153602.13;;;19.24;44.27
44926;BME280;30662;51.210;7.656;2023-06-14T09:09:39;153678.53;;;19.54;44.06
44926;BME280;30662;51.210;7.656;2023-06-14T09:12:13;153618.69;;;19.31;42.43
44926;BME280;30662;51.210;7.656;2023-06-14T09:14:39;153632.69;;;19.36;43.09
44926;BME280;30662;51.210;7.656;2023-06-14T09:17:07;153618.69;;;19.31;43.41
44926;BME280;30662;51.210;7.656;2023-06-14T09:19:34;153642.84;;;19.40;42.33
44926;BME280;30662;51.210;7.656;2023-06-14T09:22:03;153690.06;;;19.59;41.72
44926;BME280;30662;51.210;7.656;2023-06-14T09:24:32;153721.91;;;19.72;42.26
44926;BME280;30662;51.210;7.656;2023-06-14T09:26:58;153738.47;;;19.78;41.76
44926;BME280;30662;51.210;7.656;2023-06-14T09:29:24;153749.91;;;19.83;42.27
44926;BME280;30662;51.210;7.656;2023-06-14T09:31:52;153769.00;;;19.91;41.03
44926;BME280;30662;51.210;7.656;2023-06-14T09:34:18;153757.56;;;19.86;42.00
44926;BME280;30662;51.210;7.656;2023-06-14T09:36:46;153791.97;;;20.00;41.83
44926;BME280;30662;51.210;7.656;2023-06-14T09:39:16;153779.22;;;19.95;41.31
44926;BME280;30662;51.210;7.656;2023-06-14T09:41:43;153794.53;;;20.01;41.67
44926;BME280;30662;51.210;7.656;2023-06-14T09:44:10;153805.94;;;20.05;41.13
44926;BME280;30662;51.210;7.656;2023-06-14T09:46:48;153812.34;;;20.08;41.69
44926;BME280;30662;51.210;7.656;2023-06-14T09:49:14;153849.31;;;20.23;41.65
44926;BME280;30662;51.210;7.656;2023-06-14T09:51:43;153904.16;;;20.45;40.36
44926;BME280;30662;51.210;7.656;2023-06-14T09:54:15;153885.00;;;20.37;40.82
44926;BME280;30662;51.210;7.656;2023-06-14T09:56:44;153939.84;;;20.59;41.21
44926;BME280;30662;51.210;7.656;2023-06-14T09:59:12;153944.91;;;20.61;41.36
44926;BME280;30662;51.210;7.656;2023-06-14T10:01:42;153962.75;;;20.68;41.33
44926;BME280;30662;51.210;7.656;2023-06-14T10:04:09;154003.53;;;20.84;41.52
44926;BME280;30662;51.210;7.656;2023-06-14T10:06:43;154071.13;;;21.11;41.55
44926;BME280;30662;51.210;7.656;2023-06-14T10:09:10;154060.91;;;21.07;41.07
44926;BME280;30662;51.210;7.656;2023-06-14T10:11:37;154049.47;;;21.03;41.19
44926;BME280;30662;51.210;7.656;2023-06-14T10:14:06;154134.94;;;21.37;41.25
44926;BME280;30662;51.210;7.656;2023-06-14T10:16:35;154115.78;;;21.29;40.71
44926;BME280;30662;51.210;7.656;2023-06-14T10:21:41;154119.63;;;21.31;40.72
44926;BME280;30662;51.210;7.656;2023-06-14T10:24:10;154168.06;;;21.50;40.40
44926;BME280;30662;51.210;7.656;2023-06-14T10:26:51;154152.81;;;21.44;40.68
44926;BME280;30662;51.210;7.656;2023-06-14T10:29:17;154266.28;;;21.89;39.98
44926;BME280;30662;51.210;7.656;2023-06-14T10:31:45;154240.75;;;21.79;40.72
44926;BME280;30662;51.210;7.656;2023-06-14T10:34:12;154252.25;;;21.84;39.90
44926;BME280;30662;51.210;7.656;2023-06-14T10:36:42;154316.09;;;22.09;39.64
44926;BME280;30662;51.210;7.656;2023-06-14T10:39:16;154277.75;;;21.94;40.50
44926;BME280;30662;51.210;7.656;2023-06-14T10:41:52;154344.16;;;22.20;39.91
44926;BME280;30662;51.210;7.656;2023-06-14T10:46:48;154427.09;;;22.53;38.23
44926;BME280;30662;51.210;7.656;2023-06-14T10:49:18;154304.56;;;22.05;38.49
44926;BME280;30662;51.210;7.656;2023-06-14T10:51:45;154330.09;;;22.15;37.98
44926;BME280;30662;51.210;7.656;2023-06-14T10:54:20;154406.69;;;22.45;37.53
44926;BME280;30662;51.210;7.656;2023-06-14T10:56:47;154533.03;;;22.96;37.25
44926;BME280;30662;51.210;7.656;2023-06-14T10:59:16;154619.84;;;23.30;35.76
44926;BME280;30662;51.210;7.656;2023-06-14T11:04:48;154576.47;;;23.13;34.98
44926;BME280;30662;51.210;7.656;2023-06-14T11:12:59;154619.84;;;23.30;34.75
44926;BME280;30662;51.210;7.656;2023-06-14T11:15:29;154640.25;;;23.38;35.14
44926;BME280;30662;51.210;7.656;2023-06-14T11:17:57;154701.63;;;23.63;34.60
44926;BME280;30662;51.210;7.656;2023-06-14T11:20:27;154691.34;;;23.59;33.96
44926;BME280;30662;51.210;7.656;2023-06-14T11:22:54;154668.38;;;23.50;33.78
44926;BME280;30662;51.210;7.656;2023-06-14T11:25:20;154669.66;;;23.50;34.53
44926;BME280;30662;51.210;7.656;2023-06-14T11:27:49;154658.13;;;23.46;33.91
44926;BME280;30662;51.210;7.656;2023-06-14T11:30:16;154554.78;;;23.04;34.48
44926;BME280;30662;51.210;7.656;2023-06-14T11:32:45;154673.47;;;23.52;33.15
44926;BME280;30662;51.210;7.656;2023-06-14T11:35:15;154766.72;;;23.89;33.86
44926;BME280;30662;51.210;7.656;2023-06-14T11:37:41;154745.03;;;23.80;33.59
44926;BME280;30662;51.210;7.656;2023-06-14T11:40:08;154746.31;;;23.81;33.36
44926;BME280;30662;51.210;7.656;2023-06-14T11:42:36;154640.25;;;23.38;33.80
44926;BME280;30662;51.210;7.656;2023-06-14T11:45:03;154591.78;;;23.19;34.19
44926;BME280;30662;51.210;7.656;2023-06-14T11:47:41;154577.72;;;23.14;34.91
44926;BME280;30662;51.210;7.656;2023-06-14T11:50:09;154581.56;;;23.15;34.13
44926;BME280;30662;51.210;7.656;2023-06-14T11:52:36;154545.81;;;23.01;34.65
44926;BME280;30662;51.210;7.656;2023-06-14T11:55:03;154538.16;;;22.98;34.64
44926;BME280;30662;51.210;7.656;2023-06-14T11:57:35;154677.28;;;23.53;34.27
44926;BME280;30662;51.210;7.656;2023-06-14T12:00:06;154663.28;;;23.48;34.53
44926;BME280;30662;51.210;7.656;2023-06-14T12:02:38;154660.72;;;23.47;34.51
44926;BME280;30662;51.210;7.656;2023-06-14T12:05:06;154695.22;;;23.60;34.52
44926;BME280;30662;51.210;7.656;2023-06-14T12:07:38;154696.50;;;23.61;34.27
44926;BME280;30662;51.210;7.656;2023-06-14T12:10:08;154668.38;;;23.50;35.30
44926;BME280;30662;51.210;7.656;2023-06-14T12:12:36;154750.13;;;23.82;33.99
44926;BME280;30662;51.210;7.656;2023-06-14T12:15:05;154816.56;;;24.09;34.26
44926;BME280;30662;51.210;7.656;2023-06-14T12:17:33;154794.84;;;24.00;33.35
44926;BME280;30662;51.210;7.656;2023-06-14T12:20:05;154640.25;;;23.38;33.75
44926;BME280;30662;51.210;7.656;2023-06-14T12:22:51;154529.22;;;22.94;34.93
44926;BME280;30662;51.210;7.656;2023-06-14T12:25:35;154581.56;;;23.15;34.96
44926;BME280;30662;51.210;7.656;2023-06-14T12:28:07;154525.41;;;22.93;34.61
44926;BME280;30662;51.210;7.656;2023-06-14T12:30:34;154692.63;;;23.59;34.26
44926;BME280;30662;51.210;7.656;2023-06-14T12:33:04;154705.44;;;23.64;34.41
44926;BME280;30662;51.210;7.656;2023-06-14T12:35:30;154601.97;;;23.23;33.46
44926;BME280;30662;51.210;7.656;2023-06-14T12:37:56;154543.25;;;23.00;34.78
44926;BME280;30662;51.210;7.656;2023-06-14T12:40:22;154570.09;;;23.10;34.72
44926;BME280;30662;51.210;7.656;2023-06-14T12:42:49;154697.81;;;23.61;34.60
44926;BME280;30662;51.210;7.656;2023-06-14T12:45:14;154787.16;;;23.97;33.79
44926;BME280;30662;51.210;7.656;2023-06-14T12:47:41;154761.63;;;23.87;34.30
44926;BME280;30662;51.210;7.656;2023-06-14T12:50:07;154636.44;;;23.37;33.42
44926;BME280;30662;51.210;7.656;2023-06-14T12:52:33;154739.94;;;23.78;33.59
44926;BME280;30662;51.210;7.656;2023-06-14T12:55:05;154708.00;;;23.65;32.65
44926;BME280;30662;51.210;7.656;2023-06-14T12:57:31;154618.56;;;23.30;33.95
44926;BME280;30662;51.210;7.656;2023-06-14T13:00:00;154575.19;;;23.13;34.78
44926;BME280;30662;51.210;7.656;2023-06-14T13:02:25;154746.31;;;23.81;33.79
44926;BME280;30662;51.210;7.656;2023-06-14T13:04:53;154812.72;;;24.07;33.63
44926;BME280;30662;51.210;7.656;2023-06-14T13:07:18;154752.72;;;23.83;33.32
44926;BME280;30662;51.210;7.656;2023-06-14T13:09:44;154871.47;;;24.31;33.35
44926;BME280;30662;51.210;7.656;2023-06-14T13:12:11;154856.13;;;24.25;32.23